Terminal Aerodrome Forecast
Issued by NWS

Home | Current Version | Previous Version | Text Only | Print | Product List | Glossary On
Versions: 1 2 3 4 5 6 7 8 9 10 11 12 13 14 15
471
FTUS46 KMFR 100538
TAFOTH
TAF
KOTH 100538Z 1006/1106 02003KT P6SM BKN250
     FM101300 16005KT P6SM -RA BKN025 OVC040
     FM101800 17010KT P6SM SCT025 BKN050
     FM102000 23010KT P6SM BKN080 BKN200=

USA.gov is the U.S. government's official web portal to all federal, state and local government web resources and services.